sensor_id;sensor_type;location;lat;lon;timestamp;P1;durP1;ratioP1;P2;durP2;ratioP2
23258;SDS011;11798;51.528;7.240;2022-08-21T00:00:04;10.47;;;6.20;;
23258;SDS011;11798;51.528;7.240;2022-08-21T00:02:32;10.60;;;6.07;;
23258;SDS011;11798;51.528;7.240;2022-08-21T00:04:58;7.60;;;5.33;;
23258;SDS011;11798;51.528;7.240;2022-08-21T00:07:23;11.30;;;5.33;;
23258;SDS011;11798;51.528;7.240;2022-08-21T00:09:49;8.07;;;4.80;;
23258;SDS011;11798;51.528;7.240;2022-08-21T00:12:15;10.47;;;5.40;;
23258;SDS011;11798;51.528;7.240;2022-08-21T00:14:41;8.17;;;5.13;;
23258;SDS011;11798;51.528;7.240;2022-08-21T00:17:06;10.20;;;4.50;;
23258;SDS011;11798;51.528;7.240;2022-08-21T00:19:32;8.93;;;5.10;;
23258;SDS011;11798;51.528;7.240;2022-08-21T00:21:58;11.63;;;5.40;;
23258;SDS011;11798;51.528;7.240;2022-08-21T00:24:24;12.43;;;5.30;;
23258;SDS011;11798;51.528;7.240;2022-08-21T00:26:50;9.03;;;5.60;;
23258;SDS011;11798;51.528;7.240;2022-08-21T00:29:16;9.93;;;5.80;;
23258;SDS011;11798;51.528;7.240;2022-08-21T00:31:42;10.70;;;5.27;;
23258;SDS011;11798;51.528;7.240;2022-08-21T00:34:09;8.70;;;4.87;;
23258;SDS011;11798;51.528;7.240;2022-08-21T00:36:36;10.27;;;5.33;;
23258;SDS011;11798;51.528;7.240;2022-08-21T00:39:03;9.53;;;4.80;;
23258;SDS011;11798;51.528;7.240;2022-08-21T00:41:30;11.07;;;5.13;;
23258;SDS011;11798;51.528;7.240;2022-08-21T00:43:56;11.23;;;5.10;;
23258;SDS011;11798;51.528;7.240;2022-08-21T00:46:21;12.47;;;5.10;;
23258;SDS011;11798;51.528;7.240;2022-08-21T00:48:47;10.33;;;5.57;;
23258;SDS011;11798;51.528;7.240;2022-08-21T00:51:17;14.13;;;5.70;;
23258;SDS011;11798;51.528;7.240;2022-08-21T00:53:48;9.53;;;5.20;;
23258;SDS011;11798;51.528;7.240;2022-08-21T00:56:18;8.50;;;5.33;;
23258;SDS011;11798;51.528;7.240;2022-08-21T00:58:46;11.43;;;5.37;;
23258;SDS011;11798;51.528;7.240;2022-08-21T01:01:13;10.97;;;5.70;;
23258;SDS011;11798;51.528;7.240;2022-08-21T01:03:39;11.60;;;4.93;;
23258;SDS011;11798;51.528;7.240;2022-08-21T01:06:05;6.70;;;5.47;;
23258;SDS011;11798;51.528;7.240;2022-08-21T01:08:31;7.83;;;5.30;;
23258;SDS011;11798;51.528;7.240;2022-08-21T01:10:58;8.90;;;5.53;;
23258;SDS011;11798;51.528;7.240;2022-08-21T01:13:24;8.90;;;5.63;;
23258;SDS011;11798;51.528;7.240;2022-08-21T01:15:52;13.40;;;5.97;;
23258;SDS011;11798;51.528;7.240;2022-08-21T01:18:21;9.77;;;5.67;;
23258;SDS011;11798;51.528;7.240;2022-08-21T01:23:26;10.83;;;6.30;;
23258;SDS011;11798;51.528;7.240;2022-08-21T01:25:56;9.83;;;5.80;;
23258;SDS011;11798;51.528;7.240;2022-08-21T01:28:22;10.37;;;6.47;;
23258;SDS011;11798;51.528;7.240;2022-08-21T01:30:50;11.03;;;6.13;;
23258;SDS011;11798;51.528;7.240;2022-08-21T01:33:18;9.03;;;5.60;;
23258;SDS011;11798;51.528;7.240;2022-08-21T01:35:47;9.20;;;5.83;;
23258;SDS011;11798;51.528;7.240;2022-08-21T01:38:12;10.67;;;6.23;;
23258;SDS011;11798;51.528;7.240;2022-08-21T01:40:38;10.90;;;7.00;;
23258;SDS011;11798;51.528;7.240;2022-08-21T01:43:04;8.17;;;6.23;;
23258;SDS011;11798;51.528;7.240;2022-08-21T01:45:29;12.80;;;6.83;;
23258;SDS011;11798;51.528;7.240;2022-08-21T01:47:55;10.37;;;6.13;;
23258;SDS011;11798;51.528;7.240;2022-08-21T01:50:21;12.80;;;7.27;;
23258;SDS011;11798;51.528;7.240;2022-08-21T01:52:48;12.87;;;6.23;;
23258;SDS011;11798;51.528;7.240;2022-08-21T01:55:15;8.27;;;6.17;;
23258;SDS011;11798;51.528;7.240;2022-08-21T01:57:42;10.93;;;6.33;;
23258;SDS011;11798;51.528;7.240;2022-08-21T02:00:10;10.10;;;6.77;;
23258;SDS011;11798;51.528;7.240;2022-08-21T02:02:38;10.10;;;6.10;;
23258;SDS011;11798;51.528;7.240;2022-08-21T02:05:04;7.33;;;6.50;;
23258;SDS011;11798;51.528;7.240;2022-08-21T02:07:40;11.83;;;7.30;;
23258;SDS011;11798;51.528;7.240;2022-08-21T02:10:18;10.40;;;6.83;;
23258;SDS011;11798;51.528;7.240;2022-08-21T02:12:47;9.77;;;6.83;;
23258;SDS011;11798;51.528;7.240;2022-08-21T02:15:13;10.10;;;6.70;;
23258;SDS011;11798;51.528;7.240;2022-08-21T02:17:47;11.53;;;7.30;;
23258;SDS011;11798;51.528;7.240;2022-08-21T02:20:16;16.87;;;6.93;;
23258;SDS011;11798;51.528;7.240;2022-08-21T02:22:45;12.37;;;7.47;;
23258;SDS011;11798;51.528;7.240;2022-08-21T02:25:11;12.77;;;7.73;;
23258;SDS011;11798;51.528;7.240;2022-08-21T02:27:37;14.27;;;7.90;;
23258;SDS011;11798;51.528;7.240;2022-08-21T02:30:08;11.30;;;7.57;;
23258;SDS011;11798;51.528;7.240;2022-08-21T02:32:39;11.80;;;7.87;;
23258;SDS011;11798;51.528;7.240;2022-08-21T02:35:06;13.53;;;8.30;;
23258;SDS011;11798;51.528;7.240;2022-08-21T02:37:32;12.43;;;7.80;;
23258;SDS011;11798;51.528;7.240;2022-08-21T02:39:59;15.43;;;8.30;;
23258;SDS011;11798;51.528;7.240;2022-08-21T02:42:26;10.23;;;7.47;;
23258;SDS011;11798;51.528;7.240;2022-08-21T02:44:51;12.50;;;7.57;;
23258;SDS011;11798;51.528;7.240;2022-08-21T02:47:17;13.30;;;7.90;;
23258;SDS011;11798;51.528;7.240;2022-08-21T02:49:42;11.70;;;7.97;;
23258;SDS011;11798;51.528;7.240;2022-08-21T02:52:08;10.70;;;7.50;;
23258;SDS011;11798;51.528;7.240;2022-08-21T02:54:34;11.87;;;7.90;;
23258;SDS011;11798;51.528;7.240;2022-08-21T02:56:59;11.97;;;7.17;;
23258;SDS011;11798;51.528;7.240;2022-08-21T02:59:25;11.27;;;7.43;;
23258;SDS011;11798;51.528;7.240;2022-08-21T03:01:50;14.90;;;8.03;;
23258;SDS011;11798;51.528;7.240;2022-08-21T03:04:16;15.20;;;7.60;;
23258;SDS011;11798;51.528;7.240;2022-08-21T03:06:42;9.87;;;7.47;;
23258;SDS011;11798;51.528;7.240;2022-08-21T03:09:08;13.83;;;8.40;;
23258;SDS011;11798;51.528;7.240;2022-08-21T03:11:33;14.23;;;8.40;;
23258;SDS011;11798;51.528;7.240;2022-08-21T03:13:59;14.23;;;8.57;;
23258;SDS011;11798;51.528;7.240;2022-08-21T03:16:25;15.33;;;8.87;;
23258;SDS011;11798;51.528;7.240;2022-08-21T03:18:50;11.80;;;7.37;;
23258;SDS011;11798;51.528;7.240;2022-08-21T03:21:17;12.10;;;7.30;;
23258;SDS011;11798;51.528;7.240;2022-08-21T03:23:43;14.23;;;7.60;;
23258;SDS011;11798;51.528;7.240;2022-08-21T03:26:09;12.27;;;8.50;;
23258;SDS011;11798;51.528;7.240;2022-08-21T03:28:36;13.77;;;8.40;;
23258;SDS011;11798;51.528;7.240;2022-08-21T03:31:02;9.17;;;6.90;;
23258;SDS011;11798;51.528;7.240;2022-08-21T03:33:27;12.30;;;7.00;;
23258;SDS011;11798;51.528;7.240;2022-08-21T03:36:03;10.83;;;7.40;;
23258;SDS011;11798;51.528;7.240;2022-08-21T03:38:31;11.73;;;8.33;;
23258;SDS011;11798;51.528;7.240;2022-08-21T03:40:59;10.07;;;7.83;;
23258;SDS011;11798;51.528;7.240;2022-08-21T03:43:25;9.37;;;8.10;;
23258;SDS011;11798;51.528;7.240;2022-08-21T03:45:51;10.63;;;8.10;;
23258;SDS011;11798;51.528;7.240;2022-08-21T03:48:17;10.43;;;7.87;;
23258;SDS011;11798;51.528;7.240;2022-08-21T03:50:44;10.47;;;8.20;;
23258;SDS011;11798;51.528;7.240;2022-08-21T03:53:12;12.37;;;8.40;;
23258;SDS011;11798;51.528;7.240;2022-08-21T03:55:38;14.00;;;8.77;;
23258;SDS011;11798;51.528;7.240;2022-08-21T03:58:04;11.37;;;8.47;;
23258;SDS011;11798;51.528;7.240;2022-08-21T04:00:30;14.73;;;8.33;;
23258;SDS011;11798;51.528;7.240;2022-08-21T04:02:55;13.77;;;8.77;;
23258;SDS011;11798;51.528;7.240;2022-08-21T04:05:21;15.57;;;8.37;;
23258;SDS011;11798;51.528;7.240;2022-08-21T04:07:53;11.67;;;8.57;;
23258;SDS011;11798;51.528;7.240;2022-08-21T04:10:20;20.23;;;8.87;;
23258;SDS011;11798;51.528;7.240;2022-08-21T04:12:45;13.40;;;9.13;;
23258;SDS011;11798;51.528;7.240;2022-08-21T04:15:11;12.20;;;8.50;;
23258;SDS011;11798;51.528;7.240;2022-08-21T04:17:38;14.07;;;9.37;;
23258;SDS011;11798;51.528;7.240;2022-08-21T04:20:04;15.33;;;9.37;;
23258;SDS011;11798;51.528;7.240;2022-08-21T04:22:30;16.73;;;8.97;;
23258;SDS011;11798;51.528;7.240;2022-08-21T04:24:55;10.20;;;8.43;;
23258;SDS011;11798;51.528;7.240;2022-08-21T04:27:21;12.90;;;9.17;;
23258;SDS011;11798;51.528;7.240;2022-08-21T04:29:46;14.17;;;9.40;;
23258;SDS011;11798;51.528;7.240;2022-08-21T04:32:12;14.33;;;9.47;;
23258;SDS011;11798;51.528;7.240;2022-08-21T04:34:38;12.40;;;8.90;;
23258;SDS011;11798;51.528;7.240;2022-08-21T04:37:03;14.67;;;8.50;;
23258;SDS011;11798;51.528;7.240;2022-08-21T04:39:29;13.90;;;9.10;;
23258;SDS011;11798;51.528;7.240;2022-08-21T04:41:54;12.80;;;8.37;;
23258;SDS011;11798;51.528;7.240;2022-08-21T04:44:20;16.23;;;9.47;;
23258;SDS011;11798;51.528;7.240;2022-08-21T04:46:46;13.40;;;9.23;;
23258;SDS011;11798;51.528;7.240;2022-08-21T04:49:11;13.03;;;9.60;;
23258;SDS011;11798;51.528;7.240;2022-08-21T04:51:37;15.07;;;9.33;;
23258;SDS011;11798;51.528;7.240;2022-08-21T04:54:09;12.97;;;9.47;;
23258;SDS011;11798;51.528;7.240;2022-08-21T04:56:40;11.50;;;9.20;;
23258;SDS011;11798;51.528;7.240;2022-08-21T04:59:11;13.30;;;9.60;;
23258;SDS011;11798;51.528;7.240;2022-08-21T05:01:42;10.40;;;8.27;;
23258;SDS011;11798;51.528;7.240;2022-08-21T05:04:10;16.03;;;9.60;;
23258;SDS011;11798;51.528;7.240;2022-08-21T05:06:39;15.00;;;10.43;;
23258;SDS011;11798;51.528;7.240;2022-08-21T05:09:08;12.63;;;8.93;;
23258;SDS011;11798;51.528;7.240;2022-08-21T05:11:34;12.13;;;9.63;;
23258;SDS011;11798;51.528;7.240;2022-08-21T05:14:02;14.43;;;10.17;;
23258;SDS011;11798;51.528;7.240;2022-08-21T05:16:27;13.90;;;10.17;;
23258;SDS011;11798;51.528;7.240;2022-08-21T05:18:53;13.00;;;11.07;;
23258;SDS011;11798;51.528;7.240;2022-08-21T05:21:19;16.13;;;10.03;;
23258;SDS011;11798;51.528;7.240;2022-08-21T05:23:45;14.13;;;10.07;;
23258;SDS011;11798;51.528;7.240;2022-08-21T05:26:11;15.27;;;9.00;;
23258;SDS011;11798;51.528;7.240;2022-08-21T05:28:37;13.23;;;10.17;;
23258;SDS011;11798;51.528;7.240;2022-08-21T05:31:02;11.10;;;9.43;;
23258;SDS011;11798;51.528;7.240;2022-08-21T05:33:28;13.87;;;9.53;;
23258;SDS011;11798;51.528;7.240;2022-08-21T05:35:54;14.37;;;9.07;;
23258;SDS011;11798;51.528;7.240;2022-08-21T05:38:23;15.17;;;10.07;;
23258;SDS011;11798;51.528;7.240;2022-08-21T05:40:52;16.90;;;9.93;;
23258;SDS011;11798;51.528;7.240;2022-08-21T05:43:18;15.70;;;10.37;;
23258;SDS011;11798;51.528;7.240;2022-08-21T05:45:44;13.27;;;10.03;;
23258;SDS011;11798;51.528;7.240;2022-08-21T05:48:11;13.97;;;9.97;;
23258;SDS011;11798;51.528;7.240;2022-08-21T05:50:41;13.97;;;9.60;;
23258;SDS011;11798;51.528;7.240;2022-08-21T05:53:07;15.40;;;10.10;;
23258;SDS011;11798;51.528;7.240;2022-08-21T05:55:35;14.10;;;9.83;;
23258;SDS011;11798;51.528;7.240;2022-08-21T05:58:02;21.50;;;11.10;;
23258;SDS011;11798;51.528;7.240;2022-08-21T06:00:28;16.37;;;10.90;;
23258;SDS011;11798;51.528;7.240;2022-08-21T06:02:54;16.03;;;10.90;;
23258;SDS011;11798;51.528;7.240;2022-08-21T06:05:19;14.67;;;11.10;;
23258;SDS011;11798;51.528;7.240;2022-08-21T06:07:45;17.63;;;10.77;;
23258;SDS011;11798;51.528;7.240;2022-08-21T06:10:11;18.03;;;10.93;;
23258;SDS011;11798;51.528;7.240;2022-08-21T06:12:37;14.87;;;11.17;;
23258;SDS011;11798;51.528;7.240;2022-08-21T06:15:02;16.37;;;10.27;;
23258;SDS011;11798;51.528;7.240;2022-08-21T06:17:28;14.47;;;10.20;;
23258;SDS011;11798;51.528;7.240;2022-08-21T06:19:54;15.40;;;10.03;;
23258;SDS011;11798;51.528;7.240;2022-08-21T06:22:20;15.50;;;11.13;;
23258;SDS011;11798;51.528;7.240;2022-08-21T06:24:46;18.87;;;11.87;;
23258;SDS011;11798;51.528;7.240;2022-08-21T06:27:12;15.57;;;11.43;;
23258;SDS011;11798;51.528;7.240;2022-08-21T06:29:38;15.07;;;10.50;;
23258;SDS011;11798;51.528;7.240;2022-08-21T06:32:04;18.73;;;12.10;;
23258;SDS011;11798;51.528;7.240;2022-08-21T06:34:35;15.77;;;10.87;;
23258;SDS011;11798;51.528;7.240;2022-08-21T06:37:02;15.67;;;10.83;;
23258;SDS011;11798;51.528;7.240;2022-08-21T06:39:28;18.47;;;11.57;;
23258;SDS011;11798;51.528;7.240;2022-08-21T06:41:54;17.80;;;12.00;;
23258;SDS011;11798;51.528;7.240;2022-08-21T06:44:20;21.60;;;12.77;;
23258;SDS011;11798;51.528;7.240;2022-08-21T06:46:46;18.67;;;12.27;;
23258;SDS011;11798;51.528;7.240;2022-08-21T06:49:11;17.10;;;12.30;;
23258;SDS011;11798;51.528;7.240;2022-08-21T06:51:37;19.37;;;13.07;;
23258;SDS011;11798;51.528;7.240;2022-08-21T06:54:03;17.97;;;11.53;;
23258;SDS011;11798;51.528;7.240;2022-08-21T06:56:29;18.10;;;12.67;;
23258;SDS011;11798;51.528;7.240;2022-08-21T06:58:55;18.47;;;12.53;;
23258;SDS011;11798;51.528;7.240;2022-08-21T07:01:21;21.10;;;12.43;;
23258;SDS011;11798;51.528;7.240;2022-08-21T07:03:49;16.47;;;10.80;;
23258;SDS011;11798;51.528;7.240;2022-08-21T07:06:15;17.40;;;12.50;;
23258;SDS011;11798;51.528;7.240;2022-08-21T07:08:40;14.07;;;11.13;;
23258;SDS011;11798;51.528;7.240;2022-08-21T07:11:10;14.77;;;10.67;;
23258;SDS011;11798;51.528;7.240;2022-08-21T07:13:41;19.83;;;11.73;;
23258;SDS011;11798;51.528;7.240;2022-08-21T07:16:06;18.23;;;10.70;;
23258;SDS011;11798;51.528;7.240;2022-08-21T07:18:33;14.93;;;10.87;;
23258;SDS011;11798;51.528;7.240;2022-08-21T07:21:00;17.03;;;11.80;;
23258;SDS011;11798;51.528;7.240;2022-08-21T07:23:28;14.63;;;9.23;;
23258;SDS011;11798;51.528;7.240;2022-08-21T07:25:56;17.30;;;11.57;;
23258;SDS011;11798;51.528;7.240;2022-08-21T07:28:24;14.20;;;10.37;;
23258;SDS011;11798;51.528;7.240;2022-08-21T07:30:50;15.60;;;10.27;;
23258;SDS011;11798;51.528;7.240;2022-08-21T08:13:45;8.00;;;3.73;;
23258;SDS011;11798;51.528;7.240;2022-08-21T08:16:12;11.27;;;4.17;;
23258;SDS011;11798;51.528;7.240;2022-08-21T08:18:39;6.60;;;3.47;;
23258;SDS011;11798;51.528;7.240;2022-08-21T08:21:07;7.63;;;3.77;;
23258;SDS011;11798;51.528;7.240;2022-08-21T08:23:33;9.93;;;4.10;;
23258;SDS011;11798;51.528;7.240;2022-08-21T08:25:59;10.40;;;4.03;;
23258;SDS011;11798;51.528;7.240;2022-08-21T08:28:27;7.13;;;3.13;;
23258;SDS011;11798;51.528;7.240;2022-08-21T08:30:52;11.27;;;4.07;;
23258;SDS011;11798;51.528;7.240;2022-08-21T08:33:18;7.63;;;3.80;;
23258;SDS011;11798;51.528;7.240;2022-08-21T08:35:46;9.40;;;3.57;;
23258;SDS011;11798;51.528;7.240;2022-08-21T08:38:13;8.13;;;3.47;;
23258;SDS011;11798;51.528;7.240;2022-08-21T08:43:18;10.00;;;4.33;;
23258;SDS011;11798;51.528;7.240;2022-08-21T08:45:46;8.23;;;4.10;;
23258;SDS011;11798;51.528;7.240;2022-08-21T08:48:30;10.53;;;3.63;;
23258;SDS011;11798;51.528;7.240;2022-08-21T08:51:14;8.80;;;3.70;;
23258;SDS011;11798;51.528;7.240;2022-08-21T08:53:49;7.83;;;3.23;;
23258;SDS011;11798;51.528;7.240;2022-08-21T08:56:28;8.20;;;3.30;;
23258;SDS011;11798;51.528;7.240;2022-08-21T08:59:00;9.13;;;3.87;;
23258;SDS011;11798;51.528;7.240;2022-08-21T09:01:33;9.13;;;3.83;;
23258;SDS011;11798;51.528;7.240;2022-08-21T09:03:59;6.90;;;4.00;;
23258;SDS011;11798;51.528;7.240;2022-08-21T09:06:28;7.63;;;3.50;;
23258;SDS011;11798;51.528;7.240;2022-08-21T09:17:03;7.53;;;3.63;;
23258;SDS011;11798;51.528;7.240;2022-08-21T09:19:50;12.83;;;4.10;;
23258;SDS011;11798;51.528;7.240;2022-08-21T09:25:30;6.45;;;3.45;;
23258;SDS011;11798;51.528;7.240;2022-08-21T09:27:58;7.18;;;3.13;;
23258;SDS011;11798;51.528;7.240;2022-08-21T09:30:29;7.22;;;3.20;;
23258;SDS011;11798;51.528;7.240;2022-08-21T09:32:56;5.65;;;3.20;;
23258;SDS011;11798;51.528;7.240;2022-08-21T09:35:22;7.80;;;3.08;;
23258;SDS011;11798;51.528;7.240;2022-08-21T09:37:50;8.57;;;3.55;;
23258;SDS011;11798;51.528;7.240;2022-08-21T09:40:41;8.97;;;3.00;;
23258;SDS011;11798;51.528;7.240;2022-08-21T09:45:37;7.63;;;3.20;;
23258;SDS011;11798;51.528;7.240;2022-08-21T09:50:34;5.90;;;3.00;;
23258;SDS011;11798;51.528;7.240;2022-08-21T09:53:00;5.93;;;3.13;;
23258;SDS011;11798;51.528;7.240;2022-08-21T09:58:18;7.40;;;3.08;;
23258;SDS011;11798;51.528;7.240;2022-08-21T10:00:45;7.38;;;3.08;;
23258;SDS011;11798;51.528;7.240;2022-08-21T10:03:21;7.68;;;2.25;;
23258;SDS011;11798;51.528;7.240;2022-08-21T10:05:53;8.70;;;3.38;;
23258;SDS011;11798;51.528;7.240;2022-08-21T10:08:23;6.65;;;2.13;;
23258;SDS011;11798;51.528;7.240;2022-08-21T10:10:52;7.28;;;2.30;;
23258;SDS011;11798;51.528;7.240;2022-08-21T10:13:32;3.83;;;1.75;;
23258;SDS011;11798;51.528;7.240;2022-08-21T10:19:09;4.55;;;2.30;;
23258;SDS011;11798;51.528;7.240;2022-08-21T10:21:59;4.75;;;1.95;;
23258;SDS011;11798;51.528;7.240;2022-08-21T10:24:44;8.13;;;2.10;;
23258;SDS011;11798;51.528;7.240;2022-08-21T10:27:44;3.25;;;1.90;;
23258;SDS011;11798;51.528;7.240;2022-08-21T10:30:36;5.82;;;2.45;;
23258;SDS011;11798;51.528;7.240;2022-08-21T10:36:18;3.88;;;1.90;;
23258;SDS011;11798;51.528;7.240;2022-08-21T10:38:55;5.97;;;2.25;;
23258;SDS011;11798;51.528;7.240;2022-08-21T10:47:12;6.00;;;1.77;;
23258;SDS011;11798;51.528;7.240;2022-08-21T10:49:51;3.28;;;1.77;;
23258;SDS011;11798;51.528;7.240;2022-08-21T10:57:59;4.65;;;2.40;;
23258;SDS011;11798;51.528;7.240;2022-08-21T11:01:03;3.80;;;1.90;;
23258;SDS011;11798;51.528;7.240;2022-08-21T11:03:28;3.28;;;1.45;;
23258;SDS011;11798;51.528;7.240;2022-08-21T11:06:14;2.70;;;1.30;;
23258;SDS011;11798;51.528;7.240;2022-08-21T11:08:57;4.60;;;1.52;;
23258;SDS011;11798;51.528;7.240;2022-08-21T11:11:36;2.85;;;1.40;;
23258;SDS011;11798;51.528;7.240;2022-08-21T11:14:54;3.15;;;1.42;;
23258;SDS011;11798;51.528;7.240;2022-08-21T11:17:05;4.78;;;1.50;;
23258;SDS011;11798;51.528;7.240;2022-08-21T11:25:13;3.83;;;1.52;;
23258;SDS011;11798;51.528;7.240;2022-08-21T11:28:00;3.08;;;1.98;;
23258;SDS011;11798;51.528;7.240;2022-08-21T11:33:29;4.10;;;2.10;;
23258;SDS011;11798;51.528;7.240;2022-08-21T11:36:20;4.30;;;3.28;;
23258;SDS011;11798;51.528;7.240;2022-08-21T11:39:22;2.60;;;1.50;;
23258;SDS011;11798;51.528;7.240;2022-08-21T11:47:12;4.43;;;1.50;;
23258;SDS011;11798;51.528;7.240;2022-08-21T11:52:53;3.63;;;1.50;;
23258;SDS011;11798;51.528;7.240;2022-08-21T11:55:37;2.63;;;1.23;;
23258;SDS011;11798;51.528;7.240;2022-08-21T11:58:17;4.30;;;1.40;;
23258;SDS011;11798;51.528;7.240;2022-08-21T12:00:53;4.90;;;2.00;;
23258;SDS011;11798;51.528;7.240;2022-08-21T12:03:31;2.33;;;1.35;;
23258;SDS011;11798;51.528;7.240;2022-08-21T12:06:01;2.88;;;1.35;;
23258;SDS011;11798;51.528;7.240;2022-08-21T12:13:38;3.42;;;1.40;;
23258;SDS011;11798;51.528;7.240;2022-08-21T12:16:06;3.30;;;1.52;;
23258;SDS011;11798;51.528;7.240;2022-08-21T12:18:33;4.50;;;1.63;;
23258;SDS011;11798;51.528;7.240;2022-08-21T12:26:35;3.90;;;1.63;;
23258;SDS011;11798;51.528;7.240;2022-08-21T12:32:02;4.47;;;1.80;;
23258;SDS011;11798;51.528;7.240;2022-08-21T12:35:17;3.47;;;1.70;;
23258;SDS011;11798;51.528;7.240;2022-08-21T12:40:02;3.20;;;1.58;;
23258;SDS011;11798;51.528;7.240;2022-08-21T12:42:43;3.92;;;1.75;;
23258;SDS011;11798;51.528;7.240;2022-08-21T12:46:00;2.70;;;1.30;;
23258;SDS011;11798;51.528;7.240;2022-08-21T12:48:17;4.28;;;1.63;;
23258;SDS011;11798;51.528;7.240;2022-08-21T12:53:49;3.72;;;1.48;;
23258;SDS011;11798;51.528;7.240;2022-08-21T12:56:20;3.03;;;1.50;;
23258;SDS011;11798;51.528;7.240;2022-08-21T12:58:49;2.45;;;1.50;;
23258;SDS011;11798;51.528;7.240;2022-08-21T13:01:23;5.03;;;2.05;;
23258;SDS011;11798;51.528;7.240;2022-08-21T13:03:53;3.80;;;1.60;;
23258;SDS011;11798;51.528;7.240;2022-08-21T13:06:20;4.70;;;2.00;;
23258;SDS011;11798;51.528;7.240;2022-08-21T13:08:49;2.55;;;1.40;;
23258;SDS011;11798;51.528;7.240;2022-08-21T13:11:18;4.85;;;1.52;;
23258;SDS011;11798;51.528;7.240;2022-08-21T13:13:50;5.00;;;1.38;;
23258;SDS011;11798;51.528;7.240;2022-08-21T13:16:19;3.10;;;1.10;;
23258;SDS011;11798;51.528;7.240;2022-08-21T13:19:06;3.08;;;1.20;;
23258;SDS011;11798;51.528;7.240;2022-08-21T13:21:42;3.60;;;1.35;;
23258;SDS011;11798;51.528;7.240;2022-08-21T13:24:16;2.65;;;1.48;;
23258;SDS011;11798;51.528;7.240;2022-08-21T13:26:45;2.95;;;1.42;;
23258;SDS011;11798;51.528;7.240;2022-08-21T13:29:14;2.65;;;1.30;;
23258;SDS011;11798;51.528;7.240;2022-08-21T13:31:51;1.33;;;1.02;;
23258;SDS011;11798;51.528;7.240;2022-08-21T13:34:21;1.55;;;0.73;;
23258;SDS011;11798;51.528;7.240;2022-08-21T13:36:51;2.53;;;1.10;;
23258;SDS011;11798;51.528;7.240;2022-08-21T13:39:20;3.03;;;1.25;;
23258;SDS011;11798;51.528;7.240;2022-08-21T13:41:48;3.33;;;1.13;;
23258;SDS011;11798;51.528;7.240;2022-08-21T13:44:19;2.47;;;0.95;;
23258;SDS011;11798;51.528;7.240;2022-08-21T13:46:51;2.88;;;0.98;;
23258;SDS011;11798;51.528;7.240;2022-08-21T13:49:18;1.40;;;1.10;;
23258;SDS011;11798;51.528;7.240;2022-08-21T13:51:47;1.88;;;0.88;;
23258;SDS011;11798;51.528;7.240;2022-08-21T13:54:24;2.67;;;1.30;;
23258;SDS011;11798;51.528;7.240;2022-08-21T13:56:52;1.50;;;0.80;;
23258;SDS011;11798;51.528;7.240;2022-08-21T13:59:25;3.28;;;1.13;;
23258;SDS011;11798;51.528;7.240;2022-08-21T14:01:59;3.28;;;1.33;;
23258;SDS011;11798;51.528;7.240;2022-08-21T14:06:59;2.65;;;1.40;;
23258;SDS011;11798;51.528;7.240;2022-08-21T14:09:28;3.15;;;1.58;;
23258;SDS011;11798;51.528;7.240;2022-08-21T14:11:55;3.30;;;1.13;;
23258;SDS011;11798;51.528;7.240;2022-08-21T14:14:24;3.80;;;1.23;;
23258;SDS011;11798;51.528;7.240;2022-08-21T14:17:00;2.78;;;1.10;;
23258;SDS011;11798;51.528;7.240;2022-08-21T14:19:41;1.70;;;1.10;;
23258;SDS011;11798;51.528;7.240;2022-08-21T14:22:22;2.28;;;1.10;;
23258;SDS011;11798;51.528;7.240;2022-08-21T14:24:48;3.55;;;1.58;;
23258;SDS011;11798;51.528;7.240;2022-08-21T14:27:16;3.45;;;1.35;;
23258;SDS011;11798;51.528;7.240;2022-08-21T14:29:43;3.78;;;1.30;;
23258;SDS011;11798;51.528;7.240;2022-08-21T14:32:42;3.35;;;1.50;;
23258;SDS011;11798;51.528;7.240;2022-08-21T14:35:02;2.50;;;1.15;;
23258;SDS011;11798;51.528;7.240;2022-08-21T14:37:28;2.05;;;1.50;;
23258;SDS011;11798;51.528;7.240;2022-08-21T14:39:54;2.22;;;1.08;;
23258;SDS011;11798;51.528;7.240;2022-08-21T14:42:20;2.55;;;1.20;;
23258;SDS011;11798;51.528;7.240;2022-08-21T14:44:45;2.45;;;1.27;;
23258;SDS011;11798;51.528;7.240;2022-08-21T14:47:11;3.10;;;1.20;;
23258;SDS011;11798;51.528;7.240;2022-08-21T14:49:37;1.30;;;1.00;;
23258;SDS011;11798;51.528;7.240;2022-08-21T14:52:02;2.58;;;1.42;;
23258;SDS011;11798;51.528;7.240;2022-08-21T14:54:29;1.60;;;1.00;;
23258;SDS011;11798;51.528;7.240;2022-08-21T14:56:56;4.22;;;1.30;;
23258;SDS011;11798;51.528;7.240;2022-08-21T14:59:23;1.48;;;1.00;;
23258;SDS011;11798;51.528;7.240;2022-08-21T15:01:50;3.22;;;1.20;;
23258;SDS011;11798;51.528;7.240;2022-08-21T15:04:17;4.07;;;1.55;;
23258;SDS011;11798;51.528;7.240;2022-08-21T15:06:42;1.92;;;1.05;;
23258;SDS011;11798;51.528;7.240;2022-08-21T15:09:08;3.03;;;1.25;;
23258;SDS011;11798;51.528;7.240;2022-08-21T15:11:34;4.93;;;1.35;;
23258;SDS011;11798;51.528;7.240;2022-08-21T15:14:00;2.03;;;1.30;;
23258;SDS011;11798;51.528;7.240;2022-08-21T15:16:28;3.90;;;1.58;;
23258;SDS011;11798;51.528;7.240;2022-08-21T15:18:56;4.15;;;1.80;;
23258;SDS011;11798;51.528;7.240;2022-08-21T15:21:23;4.13;;;1.50;;
23258;SDS011;11798;51.528;7.240;2022-08-21T15:23:48;5.43;;;1.77;;
23258;SDS011;11798;51.528;7.240;2022-08-21T15:26:14;2.17;;;1.35;;
23258;SDS011;11798;51.528;7.240;2022-08-21T15:28:40;3.03;;;1.63;;
23258;SDS011;11798;51.528;7.240;2022-08-21T15:31:05;4.53;;;1.77;;
23258;SDS011;11798;51.528;7.240;2022-08-21T15:33:32;2.80;;;1.55;;
23258;SDS011;11798;51.528;7.240;2022-08-21T15:35:58;4.22;;;1.73;;
23258;SDS011;11798;51.528;7.240;2022-08-21T15:38:23;4.53;;;1.80;;
23258;SDS011;11798;51.528;7.240;2022-08-21T15:40:49;4.85;;;1.90;;
23258;SDS011;11798;51.528;7.240;2022-08-21T15:45:51;7.28;;;1.95;;
23258;SDS011;11798;51.528;7.240;2022-08-21T15:48:16;5.13;;;1.88;;
23258;SDS011;11798;51.528;7.240;2022-08-21T15:50:42;4.30;;;1.85;;
23258;SDS011;11798;51.528;7.240;2022-08-21T15:53:08;3.25;;;1.70;;
23258;SDS011;11798;51.528;7.240;2022-08-21T15:55:34;3.10;;;1.42;;
23258;SDS011;11798;51.528;7.240;2022-08-21T15:57:59;3.38;;;1.63;;
23258;SDS011;11798;51.528;7.240;2022-08-21T16:00:25;4.45;;;1.70;;
23258;SDS011;11798;51.528;7.240;2022-08-21T16:02:53;3.28;;;1.35;;
23258;SDS011;11798;51.528;7.240;2022-08-21T16:05:22;5.95;;;1.90;;
23258;SDS011;11798;51.528;7.240;2022-08-21T16:07:48;3.42;;;1.85;;
23258;SDS011;11798;51.528;7.240;2022-08-21T16:10:15;3.75;;;1.80;;
23258;SDS011;11798;51.528;7.240;2022-08-21T16:12:51;4.43;;;1.75;;
23258;SDS011;11798;51.528;7.240;2022-08-21T16:15:23;4.85;;;2.28;;
23258;SDS011;11798;51.528;7.240;2022-08-21T16:17:50;3.08;;;1.58;;
23258;SDS011;11798;51.528;7.240;2022-08-21T16:20:19;2.45;;;1.55;;
23258;SDS011;11798;51.528;7.240;2022-08-21T16:22:48;4.57;;;1.80;;
23258;SDS011;11798;51.528;7.240;2022-08-21T16:25:15;3.78;;;1.90;;
23258;SDS011;11798;51.528;7.240;2022-08-21T16:27:42;4.15;;;1.52;;
23258;SDS011;11798;51.528;7.240;2022-08-21T16:30:10;2.50;;;1.52;;
23258;SDS011;11798;51.528;7.240;2022-08-21T16:32:36;4.03;;;2.30;;
23258;SDS011;11798;51.528;7.240;2022-08-21T16:35:02;4.40;;;1.80;;
23258;SDS011;11798;51.528;7.240;2022-08-21T16:37:28;2.55;;;1.60;;
23258;SDS011;11798;51.528;7.240;2022-08-21T16:39:54;2.03;;;1.35;;
23258;SDS011;11798;51.528;7.240;2022-08-21T16:42:20;4.68;;;1.98;;
23258;SDS011;11798;51.528;7.240;2022-08-21T16:44:49;5.20;;;2.08;;
23258;SDS011;11798;51.528;7.240;2022-08-21T16:47:15;4.22;;;1.88;;
23258;SDS011;11798;51.528;7.240;2022-08-21T16:49:42;3.72;;;1.95;;
23258;SDS011;11798;51.528;7.240;2022-08-21T16:52:07;4.97;;;2.00;;
23258;SDS011;11798;51.528;7.240;2022-08-21T16:54:33;3.10;;;1.70;;